createdAt,value
2023-03-02T00:02:00.925Z,17.83
2023-03-02T00:04:39.725Z,18.37
2023-03-02T00:07:10.463Z,17.77
2023-03-02T00:09:38.357Z,17.47
2023-03-02T00:12:06.199Z,17.13
2023-03-02T00:14:32.605Z,18.20
2023-03-02T00:16:59.115Z,18.50
2023-03-02T00:19:25.487Z,18.20
2023-03-02T00:21:51.866Z,18.47
2023-03-02T00:24:18.248Z,17.47
2023-03-02T00:26:44.965Z,17.70
2023-03-02T00:29:11.381Z,17.20
2023-03-02T00:31:38.371Z,18.07
2023-03-02T00:34:04.905Z,18.53
2023-03-02T00:36:31.298Z,17.43
2023-03-02T00:38:57.863Z,18.60
2023-03-02T00:41:24.517Z,18.23
2023-03-02T00:43:51.485Z,19.67
2023-03-02T00:46:22.746Z,18.20
2023-03-02T00:48:49.493Z,17.67
2023-03-02T00:51:16.627Z,18.30
2023-03-02T00:53:43.501Z,17.77
2023-03-02T00:56:10.941Z,18.47
2023-03-02T00:58:37.840Z,18.63
2023-03-02T01:01:10.688Z,18.17
2023-03-02T01:03:37.642Z,19.07
2023-03-02T01:06:06.022Z,17.40
2023-03-02T01:08:32.487Z,18.10
2023-03-02T01:11:01.301Z,17.83
2023-03-02T01:13:28.425Z,18.33
2023-03-02T01:16:02.701Z,17.60
2023-03-02T01:18:29.585Z,18.60
2023-03-02T01:21:08.418Z,17.93
2023-03-02T01:23:35.254Z,17.93
2023-03-02T01:26:01.769Z,18.57
2023-03-02T01:28:28.734Z,17.83
2023-03-02T01:30:55.122Z,18.33
2023-03-02T01:33:22.197Z,19.50
2023-03-02T01:35:48.759Z,19.10
2023-03-02T01:38:15.278Z,18.53
2023-03-02T01:40:41.731Z,18.43
2023-03-02T01:43:14.245Z,18.50
2023-03-02T01:45:45.535Z,17.33
2023-03-02T01:48:15.719Z,18.10
2023-03-02T01:50:42.145Z,18.83
2023-03-02T01:53:09.048Z,18.60
2023-03-02T01:55:38.885Z,19.10
2023-03-02T01:58:06.602Z,18.50
2023-03-02T02:00:38.469Z,19.23
2023-03-02T02:03:37.218Z,20.00
2023-03-02T02:06:20.535Z,18.67
2023-03-02T02:08:48.854Z,18.77
2023-03-02T02:11:15.480Z,18.83
2023-03-02T02:13:42.546Z,19.53
2023-03-02T02:16:09.207Z,18.97
2023-03-02T02:18:39.163Z,18.60
2023-03-02T02:21:07.113Z,18.73
2023-03-02T02:23:50.346Z,19.00
2023-03-02T02:26:31.481Z,17.80
2023-03-02T02:29:02.693Z,17.93
2023-03-02T02:31:36.851Z,17.93
2023-03-02T02:34:15.980Z,17.60
2023-03-02T02:36:47.679Z,18.70
2023-03-02T02:39:35.270Z,19.13
2023-03-02T02:42:05.839Z,18.43
2023-03-02T02:44:33.121Z,19.67
2023-03-02T02:46:59.513Z,18.07
2023-03-02T02:49:38.138Z,20.13
2023-03-02T02:52:06.252Z,19.30
2023-03-02T02:54:35.119Z,17.23
2023-03-02T02:57:03.681Z,18.93
2023-03-02T02:59:35.639Z,17.17
2023-03-02T03:02:02.251Z,17.87
2023-03-02T03:04:31.492Z,18.80
2023-03-02T03:07:03.065Z,17.97
2023-03-02T03:09:31.082Z,18.57
2023-03-02T03:12:07.906Z,17.27
2023-03-02T03:14:37.917Z,19.07
2023-03-02T03:17:12.446Z,19.00
2023-03-02T03:19:44.691Z,18.93
2023-03-02T03:22:12.737Z,18.63
2023-03-02T03:24:40.863Z,19.37
2023-03-02T03:27:09.328Z,18.33
2023-03-02T03:29:37.723Z,19.13
2023-03-02T03:32:05.447Z,17.77
2023-03-02T03:34:32.509Z,19.93
2023-03-02T03:37:01.679Z,20.50
2023-03-02T03:39:30.048Z,19.73
2023-03-02T03:41:56.493Z,20.03
2023-03-02T03:44:23.455Z,19.53
2023-03-02T03:46:50.277Z,19.77
2023-03-02T03:49:17.499Z,20.17
2023-03-02T03:51:44.256Z,18.73
2023-03-02T03:54:10.899Z,19.37
2023-03-02T03:56:44.991Z,20.30
2023-03-02T03:59:15.217Z,20.30
2023-03-02T04:01:45.020Z,19.03
2023-03-02T04:04:16.267Z,18.77
2023-03-02T04:06:43.237Z,18.87
2023-03-02T04:09:09.844Z,18.40
2023-03-02T04:11:39.491Z,20.37
2023-03-02T04:14:06.990Z,19.43
2023-03-02T04:16:33.729Z,19.27
2023-03-02T04:19:01.101Z,20.83
2023-03-02T04:21:27.978Z,20.40
2023-03-02T04:23:54.746Z,19.97
2023-03-02T04:26:21.510Z,20.30
2023-03-02T04:28:50.840Z,20.33
2023-03-02T04:31:17.948Z,21.13
2023-03-02T04:33:44.395Z,20.33
2023-03-02T04:36:11.060Z,21.10
2023-03-02T04:38:37.444Z,20.83
2023-03-02T04:41:04.031Z,21.00
2023-03-02T04:43:32.151Z,21.27
2023-03-02T04:45:58.959Z,20.63
2023-03-02T04:48:25.713Z,20.53
2023-03-02T04:50:52.260Z,20.50
2023-03-02T04:53:18.647Z,21.67
2023-03-02T04:55:45.092Z,22.17
2023-03-02T04:58:11.751Z,20.40
2023-03-02T05:00:38.575Z,22.47
2023-03-02T05:03:05.854Z,22.93
2023-03-02T05:05:33.004Z,21.00
2023-03-02T05:07:59.756Z,22.57
2023-03-02T05:10:27.883Z,22.17
2023-03-02T05:13:05.098Z,21.83
2023-03-02T05:15:37.888Z,21.57
2023-03-02T05:18:06.645Z,20.83
2023-03-02T05:20:34.324Z,21.70
2023-03-02T05:23:04.102Z,22.40
2023-03-02T05:25:32.381Z,22.13
2023-03-02T05:27:59.033Z,22.70
2023-03-02T05:30:25.838Z,22.47
2023-03-02T05:32:52.841Z,22.47
2023-03-02T05:35:21.552Z,21.50
2023-03-02T05:37:48.576Z,21.93
2023-03-02T05:40:19.414Z,22.47
2023-03-02T05:42:46.622Z,22.13
2023-03-02T05:45:39.776Z,22.03
2023-03-02T05:48:07.256Z,22.37
2023-03-02T05:50:33.786Z,23.13
2023-03-02T05:53:02.410Z,22.27
2023-03-02T05:55:29.128Z,23.60
2023-03-02T05:57:55.841Z,23.43
2023-03-02T06:00:22.813Z,23.37
2023-03-02T06:02:49.354Z,23.77
2023-03-02T06:05:18.900Z,22.87
2023-03-02T06:07:45.761Z,22.60
2023-03-02T06:10:13.097Z,23.57
2023-03-02T06:12:40.387Z,23.53
2023-03-02T06:15:07.943Z,26.23
2023-03-02T06:17:34.660Z,25.03
2023-03-02T06:20:01.149Z,24.47
2023-03-02T06:22:27.541Z,22.87
2023-03-02T06:24:56.914Z,38.30
2023-03-02T06:27:23.704Z,24.50
2023-03-02T06:29:50.180Z,25.10
2023-03-02T06:32:17.040Z,22.73
2023-03-02T06:34:43.473Z,24.40
2023-03-02T06:37:10.447Z,23.10
2023-03-02T06:39:36.835Z,24.27
2023-03-02T06:42:03.286Z,23.23
2023-03-02T06:44:29.773Z,22.43
2023-03-02T06:46:56.275Z,24.40
2023-03-02T06:49:22.656Z,25.57
2023-03-02T06:51:49.148Z,24.07
2023-03-02T06:54:15.516Z,23.27
2023-03-02T06:56:41.962Z,23.00
2023-03-02T06:59:08.360Z,23.37
2023-03-02T07:01:36.246Z,25.00
2023-03-02T07:04:03.207Z,25.70
2023-03-02T07:06:29.642Z,24.87
2023-03-02T07:08:56.046Z,25.20
2023-03-02T07:11:22.529Z,24.37
2023-03-02T07:13:49.702Z,23.77
2023-03-02T07:16:16.243Z,24.93
2023-03-02T07:18:42.777Z,24.87
2023-03-02T07:21:09.310Z,23.57
2023-03-02T07:23:35.770Z,24.63
2023-03-02T07:26:02.167Z,22.73
2023-03-02T07:28:28.593Z,29.77
2023-03-02T07:30:55.080Z,24.03
2023-03-02T07:33:22.457Z,23.50
2023-03-02T07:35:48.979Z,22.60
2023-03-02T07:38:15.611Z,22.83
2023-03-02T07:40:43.234Z,23.80
2023-03-02T07:43:10.558Z,22.97
2023-03-02T07:45:38.225Z,23.53
2023-03-02T07:48:05.362Z,24.10
2023-03-02T07:50:32.441Z,24.60
2023-03-02T07:53:00.031Z,23.87
2023-03-02T07:55:26.792Z,22.60
2023-03-02T07:57:53.409Z,23.90
2023-03-02T08:00:20.763Z,23.60
2023-03-02T08:02:47.460Z,23.77
2023-03-02T08:05:13.962Z,23.17
2023-03-02T08:07:43.898Z,23.13
2023-03-02T08:10:11.483Z,24.27
2023-03-02T08:12:38.044Z,22.73
2023-03-02T08:15:05.207Z,22.57
2023-03-02T08:17:32.438Z,23.57
2023-03-02T08:19:58.906Z,23.30
2023-03-02T08:22:25.773Z,24.33
2023-03-02T08:24:52.364Z,22.40
2023-03-02T08:27:18.863Z,23.90
2023-03-02T08:29:45.259Z,23.80
2023-03-02T08:32:12.009Z,22.37
2023-03-02T08:34:38.474Z,23.57
2023-03-02T08:37:04.939Z,23.60
2023-03-02T08:39:32.129Z,24.50
2023-03-02T08:41:58.629Z,24.07
2023-03-02T08:44:25.248Z,22.93
2023-03-02T08:46:51.837Z,22.87
2023-03-02T08:49:19.944Z,22.63
2023-03-02T08:51:48.960Z,24.30
2023-03-02T08:54:16.410Z,22.90
2023-03-02T08:56:44.368Z,22.43
2023-03-02T08:59:14.937Z,22.13
2023-03-02T09:01:42.542Z,21.50
2023-03-02T09:04:10.330Z,21.90
2023-03-02T09:06:39.477Z,20.83
2023-03-02T09:09:07.812Z,20.60
2023-03-02T09:11:34.606Z,20.10
2023-03-02T09:14:01.236Z,21.77
2023-03-02T09:16:27.908Z,21.53
2023-03-02T09:18:54.946Z,21.07
2023-03-02T09:21:22.267Z,22.57
2023-03-02T09:23:49.055Z,24.27
2023-03-02T09:26:15.452Z,23.17
2023-03-02T09:28:41.968Z,22.30
2023-03-02T09:31:08.788Z,24.73
2023-03-02T09:33:35.423Z,23.57
2023-03-02T09:36:09.652Z,23.27
2023-03-02T09:38:36.031Z,21.87
2023-03-02T09:41:11.576Z,22.63
2023-03-02T09:43:53.589Z,23.30
2023-03-02T09:46:36.191Z,21.90
2023-03-02T09:49:30.166Z,20.57
2023-03-02T09:52:13.844Z,21.13
2023-03-02T09:54:41.282Z,21.47
2023-03-02T09:57:27.853Z,21.47
2023-03-02T10:00:04.009Z,20.30
2023-03-02T10:02:50.078Z,23.77
2023-03-02T10:05:30.951Z,20.87
2023-03-02T10:07:59.312Z,21.67
2023-03-02T10:10:43.518Z,22.43
2023-03-02T10:13:30.930Z,23.40
2023-03-02T10:16:07.628Z,24.83
2023-03-02T10:18:48.562Z,22.27
2023-03-02T10:21:32.500Z,21.43
2023-03-02T10:24:24.294Z,22.03
2023-03-02T10:26:58.266Z,21.67
2023-03-02T10:29:42.537Z,20.40
2023-03-02T10:32:20.368Z,19.97
2023-03-02T10:34:48.525Z,19.43
2023-03-02T10:37:18.530Z,20.73
2023-03-02T10:39:44.977Z,20.10
2023-03-02T10:42:17.827Z,20.67
2023-03-02T10:45:22.313Z,21.83
2023-03-02T10:48:00.002Z,22.50
2023-03-02T10:50:26.546Z,20.83
2023-03-02T10:53:02.391Z,21.70
2023-03-02T10:55:30.533Z,22.53
2023-03-02T10:58:02.088Z,19.83
2023-03-02T11:00:30.943Z,20.90
2023-03-02T11:03:00.968Z,21.80
2023-03-02T11:05:33.338Z,22.50
2023-03-02T11:08:10.977Z,21.83
2023-03-02T11:10:51.382Z,21.60
2023-03-02T11:13:29.951Z,20.93
2023-03-02T11:16:04.854Z,20.47
2023-03-02T11:18:40.950Z,20.93
2023-03-02T11:21:17.179Z,21.13
2023-03-02T11:23:56.568Z,20.57
2023-03-02T11:27:02.497Z,20.63
2023-03-02T11:29:48.762Z,20.07
2023-03-02T11:38:32.646Z,17.47
2023-03-02T11:41:07.987Z,18.10
2023-03-02T11:43:34.857Z,19.63
2023-03-02T11:46:10.824Z,20.37
2023-03-02T11:48:47.076Z,19.77
2023-03-02T11:51:18.557Z,18.73
2023-03-02T11:54:03.118Z,18.60
2023-03-02T11:56:32.493Z,19.47
2023-03-02T11:59:04.985Z,19.07
2023-03-02T12:01:34.411Z,19.07
2023-03-02T12:04:11.265Z,19.37
2023-03-02T12:06:44.368Z,20.00
2023-03-02T12:09:30.800Z,19.40
2023-03-02T12:12:17.099Z,18.67
2023-03-02T12:14:45.618Z,20.70
2023-03-02T12:17:30.711Z,19.63
2023-03-02T12:20:24.755Z,20.30
2023-03-02T12:22:51.256Z,20.97
2023-03-02T12:25:20.391Z,20.30
2023-03-02T12:27:49.603Z,20.93
2023-03-02T12:30:16.147Z,19.90
2023-03-02T12:32:46.701Z,20.70
2023-03-02T12:35:17.610Z,19.43
2023-03-02T12:37:57.187Z,19.10
2023-03-02T12:40:39.265Z,18.67
2023-03-02T12:43:16.653Z,18.40
2023-03-02T12:45:58.523Z,19.50
2023-03-02T12:48:30.435Z,19.57
2023-03-02T12:51:01.784Z,19.23
2023-03-02T12:53:28.947Z,17.57
2023-03-02T12:55:55.770Z,19.53
2023-03-02T12:58:29.271Z,19.33
2023-03-02T13:01:00.288Z,18.60
2023-03-02T13:03:29.896Z,18.43
2023-03-02T13:06:04.887Z,17.93
2023-03-02T13:08:32.211Z,18.57
2023-03-02T13:11:01.794Z,19.00
2023-03-02T13:13:36.753Z,17.83
2023-03-02T13:16:06.197Z,17.93
2023-03-02T13:18:36.577Z,18.77
2023-03-02T13:21:04.514Z,18.33
2023-03-02T13:23:32.601Z,17.63
2023-03-02T13:26:02.234Z,17.20
2023-03-02T13:28:31.586Z,17.67
2023-03-02T13:31:01.208Z,18.33
2023-03-02T13:33:29.663Z,17.53
2023-03-02T13:35:56.592Z,19.67
2023-03-02T13:38:26.813Z,19.30
2023-03-02T13:40:55.199Z,16.87
2023-03-02T13:43:30.827Z,16.17
2023-03-02T13:46:01.439Z,16.23
2023-03-02T13:48:29.317Z,16.00
2023-03-02T13:51:03.865Z,16.17
2023-03-02T13:53:34.651Z,17.23
2023-03-02T13:56:01.304Z,15.87
2023-03-02T13:58:29.709Z,16.03
2023-03-02T14:00:56.345Z,16.53
2023-03-02T14:03:29.943Z,15.90
2023-03-02T14:05:58.487Z,16.07
2023-03-02T14:08:25.139Z,16.57
2023-03-02T14:10:54.405Z,14.53
2023-03-02T14:13:25.288Z,16.83
2023-03-02T14:15:53.527Z,15.93
2023-03-02T14:18:36.382Z,15.90
2023-03-02T14:21:03.151Z,16.33
2023-03-02T14:23:30.103Z,14.50
2023-03-02T14:25:57.196Z,13.90
2023-03-02T14:28:33.131Z,14.50
2023-03-02T14:30:59.597Z,13.00
2023-03-02T14:33:26.290Z,13.93
2023-03-02T14:35:55.980Z,13.37
2023-03-02T14:38:24.315Z,12.90
2023-03-02T14:40:51.215Z,13.03
2023-03-02T14:43:18.601Z,13.07
2023-03-02T14:45:45.490Z,12.90
2023-03-02T14:48:11.891Z,12.83
2023-03-02T14:50:44.138Z,12.70
2023-03-02T14:53:22.936Z,12.13
2023-03-02T14:55:49.413Z,13.00
2023-03-02T14:58:20.952Z,13.77
2023-03-02T15:00:47.482Z,12.60
2023-03-02T15:03:16.358Z,11.47
2023-03-02T15:05:51.783Z,11.30
2023-03-02T15:08:25.754Z,11.33
2023-03-02T15:10:52.144Z,12.07
2023-03-02T15:13:18.525Z,13.40
2023-03-02T15:15:45.010Z,12.33
2023-03-02T15:18:12.987Z,12.33
2023-03-02T15:20:39.958Z,12.70
2023-03-02T15:23:06.445Z,12.80
2023-03-02T15:25:32.823Z,12.23
2023-03-02T15:27:59.379Z,12.53
2023-03-02T15:30:30.311Z,12.13
2023-03-02T15:32:59.438Z,12.03
2023-03-02T15:35:27.514Z,12.53
2023-03-02T15:37:54.275Z,12.03
2023-03-02T15:40:20.692Z,12.40
2023-03-02T15:42:47.874Z,12.93
2023-03-02T15:45:14.398Z,12.53
2023-03-02T15:47:40.785Z,11.77
2023-03-02T15:50:07.630Z,12.20
2023-03-02T15:52:34.023Z,11.40
2023-03-02T15:55:00.406Z,11.93
2023-03-02T15:57:26.787Z,11.90
2023-03-02T15:59:53.168Z,12.10
2023-03-02T16:02:19.556Z,12.60
2023-03-02T16:04:46.275Z,12.00
2023-03-02T16:07:12.642Z,12.03
2023-03-02T16:09:39.085Z,12.03
2023-03-02T16:12:05.736Z,12.03
2023-03-02T16:14:34.043Z,12.50
2023-03-02T16:17:00.596Z,12.40
2023-03-02T16:19:27.125Z,11.87
2023-03-02T16:21:53.490Z,12.63
2023-03-02T16:24:19.900Z,12.80
2023-03-02T16:26:46.292Z,12.50
2023-03-02T16:29:13.826Z,11.87
2023-03-02T16:31:41.582Z,11.87
2023-03-02T16:34:09.063Z,12.23
2023-03-02T16:36:37.790Z,11.17
2023-03-02T16:39:05.393Z,12.13
2023-03-02T16:41:31.756Z,12.27
2023-03-02T16:43:59.814Z,11.60
2023-03-02T16:46:29.461Z,12.30
2023-03-02T16:48:57.086Z,12.50
2023-03-02T16:51:24.184Z,12.80
2023-03-02T16:53:50.622Z,12.40
2023-03-02T16:56:17.146Z,13.23
2023-03-02T16:58:43.547Z,12.53
2023-03-02T17:01:17.776Z,12.83
2023-03-02T17:03:44.971Z,12.77
2023-03-02T17:06:13.859Z,13.67
2023-03-02T17:08:40.870Z,13.23
2023-03-02T17:11:07.303Z,12.87
2023-03-02T17:13:34.089Z,12.87
2023-03-02T17:16:00.919Z,12.63
2023-03-02T17:18:28.018Z,12.40
2023-03-02T17:20:56.684Z,12.53
2023-03-02T17:23:23.445Z,13.70
2023-03-02T17:25:50.043Z,12.63
2023-03-02T17:28:16.988Z,12.57
2023-03-02T17:30:44.895Z,12.47
2023-03-02T17:33:11.361Z,12.40
2023-03-02T17:35:38.069Z,12.30
2023-03-02T17:38:04.648Z,12.03
2023-03-02T17:40:32.034Z,12.60
2023-03-02T17:42:58.402Z,12.90
2023-03-02T17:45:26.968Z,11.73
2023-03-02T17:47:55.684Z,13.17
2023-03-02T17:50:23.477Z,13.23
2023-03-02T17:52:50.264Z,13.57
2023-03-02T17:55:16.991Z,12.53
2023-03-02T17:57:43.396Z,11.90
2023-03-02T18:00:14.166Z,12.57
2023-03-02T18:02:40.728Z,12.53
2023-03-02T18:05:09.990Z,12.27
2023-03-02T18:07:37.012Z,13.40
2023-03-02T18:10:04.538Z,13.37
2023-03-02T18:12:31.044Z,13.37
2023-03-02T18:14:57.397Z,12.37
2023-03-02T18:17:23.790Z,12.83
2023-03-02T18:19:50.664Z,11.97
2023-03-02T18:22:17.355Z,13.27
2023-03-02T18:24:43.721Z,13.30
2023-03-02T18:27:10.109Z,12.77
2023-03-02T18:29:36.519Z,12.10
2023-03-02T18:32:02.984Z,13.33
2023-03-02T18:34:29.401Z,12.70
2023-03-02T18:36:56.256Z,13.20
2023-03-02T18:39:22.681Z,13.30
2023-03-02T18:41:49.610Z,13.57
2023-03-02T18:44:16.083Z,13.07
2023-03-02T18:46:42.547Z,12.43
2023-03-02T18:49:09.006Z,13.13
2023-03-02T18:51:35.709Z,12.90
2023-03-02T18:54:02.113Z,12.97
2023-03-02T18:56:28.531Z,14.20
2023-03-02T18:58:54.904Z,13.77
2023-03-02T19:01:22.256Z,12.77
2023-03-02T19:03:49.238Z,14.03
2023-03-02T19:06:16.503Z,12.37
2023-03-02T19:08:43.296Z,13.97
2023-03-02T19:11:10.937Z,14.93
2023-03-02T19:13:37.334Z,16.03
2023-03-02T19:16:04.093Z,14.27
2023-03-02T19:18:31.159Z,14.00
2023-03-02T19:20:57.722Z,13.77
2023-03-02T19:23:24.795Z,13.87
2023-03-02T19:25:52.064Z,14.63
2023-03-02T19:28:18.642Z,13.57
2023-03-02T19:30:45.029Z,13.90
2023-03-02T19:33:11.806Z,14.10
2023-03-02T19:35:38.476Z,14.23
2023-03-02T19:38:06.537Z,14.60
2023-03-02T19:40:34.434Z,13.67
2023-03-02T19:43:01.599Z,14.10
2023-03-02T19:45:32.133Z,15.63
2023-03-02T19:47:59.906Z,14.33
2023-03-02T19:50:27.325Z,15.20
2023-03-02T19:52:54.786Z,16.23
2023-03-02T19:55:22.293Z,14.73
2023-03-02T19:57:56.438Z,15.60
2023-03-02T20:00:23.853Z,14.50
2023-03-02T20:02:50.317Z,16.33
2023-03-02T20:05:17.110Z,16.00
2023-03-02T20:07:43.993Z,15.33
2023-03-02T20:10:12.925Z,15.30
2023-03-02T20:12:39.350Z,15.10
2023-03-02T20:15:06.606Z,14.73
2023-03-02T20:17:33.815Z,13.33
2023-03-02T20:20:01.229Z,13.07
2023-03-02T20:22:27.849Z,13.10
2023-03-02T20:24:54.248Z,13.20
2023-03-02T20:27:21.277Z,14.73
2023-03-02T20:29:48.202Z,14.27
2023-03-02T20:32:15.596Z,15.27
2023-03-02T20:34:43.338Z,16.60
2023-03-02T20:37:10.404Z,16.20
2023-03-02T20:39:38.579Z,15.17
2023-03-02T20:42:07.068Z,15.70
2023-03-02T20:44:33.654Z,15.97
2023-03-02T20:47:04.491Z,16.73
2023-03-02T20:49:31.805Z,16.47
2023-03-02T20:51:59.778Z,16.83
2023-03-02T20:54:30.813Z,16.03
2023-03-02T20:56:57.935Z,17.40
2023-03-02T20:59:25.203Z,18.73
2023-03-02T21:01:51.881Z,17.93
2023-03-02T21:04:18.741Z,16.77
2023-03-02T21:06:46.181Z,15.83
2023-03-02T21:09:13.323Z,16.00
2023-03-02T21:11:40.497Z,19.20
2023-03-02T21:14:06.991Z,17.90
2023-03-02T21:16:37.840Z,19.27
2023-03-02T21:19:06.550Z,18.93
2023-03-02T21:21:41.511Z,19.83
2023-03-02T21:24:10.943Z,19.53
2023-03-02T21:26:37.730Z,20.27
2023-03-02T21:29:05.391Z,22.07
2023-03-02T21:31:32.020Z,18.80
2023-03-02T21:34:00.076Z,19.30
2023-03-02T21:36:26.939Z,19.87
2023-03-02T21:38:53.359Z,20.47
2023-03-02T21:41:19.910Z,20.53
2023-03-02T21:43:46.435Z,18.93
2023-03-02T21:46:14.917Z,22.73
2023-03-02T21:48:41.704Z,21.40
2023-03-02T21:51:08.229Z,20.83
2023-03-02T21:53:34.683Z,20.57
2023-03-02T21:56:01.799Z,21.83
2023-03-02T21:58:29.667Z,23.27
2023-03-02T22:00:56.061Z,21.93
2023-03-02T22:03:22.463Z,23.47
2023-03-02T22:05:48.853Z,22.90
2023-03-02T22:08:17.880Z,23.63
2023-03-02T22:10:47.324Z,23.03
2023-03-02T22:13:23.117Z,23.60
2023-03-02T22:15:55.905Z,22.87
2023-03-02T22:18:25.071Z,22.70
2023-03-02T22:20:51.622Z,23.27
2023-03-02T22:23:21.972Z,23.07
2023-03-02T22:25:54.896Z,24.33
2023-03-02T22:28:24.238Z,24.57
2023-03-02T22:30:52.358Z,23.07
2023-03-02T22:33:24.493Z,24.47
2023-03-02T22:35:52.843Z,23.63
2023-03-02T22:38:24.690Z,25.20
2023-03-02T22:40:52.328Z,25.07
2023-03-02T22:43:25.899Z,24.27
2023-03-02T22:45:53.896Z,23.37
2023-03-02T22:48:23.207Z,25.60
2023-03-02T22:50:50.258Z,25.43
2023-03-02T22:53:30.912Z,24.87
2023-03-02T22:56:02.857Z,24.43
2023-03-02T22:58:49.074Z,24.90
2023-03-02T23:01:19.479Z,24.40
2023-03-02T23:03:47.954Z,23.37
2023-03-02T23:06:22.109Z,22.80
2023-03-02T23:08:48.589Z,23.70
2023-03-02T23:11:17.864Z,23.80
2023-03-02T23:13:44.658Z,24.60
2023-03-02T23:16:20.359Z,25.63
2023-03-02T23:18:50.500Z,25.07
2023-03-02T23:21:19.924Z,24.80
2023-03-02T23:23:47.381Z,23.60
2023-03-02T23:26:14.013Z,23.63
2023-03-02T23:28:40.385Z,24.23
2023-03-02T23:31:07.307Z,25.13
2023-03-02T23:33:33.760Z,25.07
2023-03-02T23:36:00.766Z,24.10
2023-03-02T23:38:27.384Z,26.33
2023-03-02T23:40:54.340Z,24.33
2023-03-02T23:43:20.842Z,23.13
2023-03-02T23:45:47.644Z,22.63
2023-03-02T23:48:14.056Z,21.93
2023-03-02T23:50:40.432Z,24.80
2023-03-02T23:53:06.794Z,24.03
2023-03-02T23:55:34.212Z,25.03
2023-03-02T23:58:00.796Z,24.30
